createdAt,value
2018-04-24T00:00:40.489Z,3.10
2018-04-24T00:03:08.797Z,3.97
2018-04-24T00:05:36.887Z,3.67
2018-04-24T00:08:05.025Z,3.20
2018-04-24T00:10:33.118Z,3.57
2018-04-24T00:13:01.284Z,3.27
2018-04-24T00:15:29.381Z,3.03
2018-04-24T00:17:57.499Z,3.00
2018-04-24T00:20:25.581Z,3.13
2018-04-24T00:22:53.754Z,3.50
2018-04-24T00:25:22.053Z,3.80
2018-04-24T00:27:50.164Z,3.23
2018-04-24T00:30:18.496Z,3.17
2018-04-24T00:32:46.604Z,3.30
2018-04-24T00:35:14.983Z,3.13
2018-04-24T00:37:43.063Z,3.33
2018-04-24T00:40:11.216Z,3.17
2018-04-24T00:42:39.314Z,3.23
2018-04-24T00:45:07.887Z,3.33
2018-04-24T00:47:35.986Z,3.60
2018-04-24T00:50:04.314Z,3.23
2018-04-24T00:52:32.702Z,3.33
2018-04-24T00:55:00.838Z,3.37
2018-04-24T00:57:29.149Z,3.83
2018-04-24T00:59:57.508Z,3.30
2018-04-24T01:02:25.633Z,3.10
2018-04-24T01:04:53.799Z,4.30
2018-04-24T01:07:21.905Z,3.93
2018-04-24T01:09:50.110Z,4.50
2018-04-24T01:12:18.448Z,4.13
2018-04-24T01:14:46.556Z,3.90
2018-04-24T01:17:14.921Z,3.77
2018-04-24T01:19:43.018Z,4.37
2018-04-24T01:22:11.131Z,4.30
2018-04-24T01:24:39.229Z,4.30
2018-04-24T01:27:07.548Z,4.43
2018-04-24T01:29:35.668Z,4.03
2018-04-24T01:32:03.798Z,4.70
2018-04-24T01:34:32.016Z,4.37
2018-04-24T01:37:00.165Z,4.43
2018-04-24T01:39:28.428Z,4.90
2018-04-24T01:41:56.554Z,4.93
2018-04-24T01:44:24.654Z,5.23
2018-04-24T01:46:53.007Z,5.67
2018-04-24T01:49:21.270Z,5.50
2018-04-24T01:51:49.702Z,5.73
2018-04-24T01:54:17.876Z,5.47
2018-04-24T01:56:46.268Z,6.27
2018-04-24T01:59:14.615Z,7.37
2018-04-24T02:01:42.722Z,7.33
2018-04-24T02:04:11.356Z,7.07
2018-04-24T02:06:39.457Z,6.43
2018-04-24T02:09:07.555Z,7.00
2018-04-24T02:11:35.677Z,7.40
2018-04-24T02:14:03.897Z,7.93
2018-04-24T02:16:32.044Z,7.57
2018-04-24T02:19:00.453Z,7.40
2018-04-24T02:21:28.554Z,8.20
2018-04-24T02:23:56.640Z,7.93
2018-04-24T02:26:24.738Z,7.97
2018-04-24T02:28:53.033Z,8.30
2018-04-24T02:31:21.294Z,8.07
2018-04-24T02:33:49.529Z,8.90
2018-04-24T02:36:20.561Z,8.43
2018-04-24T02:38:48.726Z,8.07
2018-04-24T02:41:17.057Z,7.90
2018-04-24T02:43:45.408Z,8.10
2018-04-24T02:46:13.509Z,9.10
2018-04-24T02:48:41.721Z,8.07
2018-04-24T02:51:09.965Z,7.80
2018-04-24T02:53:38.125Z,8.90
2018-04-24T02:56:06.391Z,8.67
2018-04-24T02:58:34.726Z,8.13
2018-04-24T03:01:03.106Z,8.77
2018-04-24T03:03:31.376Z,8.67
2018-04-24T03:05:59.566Z,7.83
2018-04-24T03:08:28.034Z,7.53
2018-04-24T03:10:56.124Z,8.40
2018-04-24T03:13:24.509Z,9.03
2018-04-24T03:15:52.644Z,8.07
2018-04-24T03:18:20.802Z,8.17
2018-04-24T03:20:49.227Z,9.57
2018-04-24T03:23:17.322Z,8.67
2018-04-24T03:25:45.632Z,8.57
2018-04-24T03:28:13.778Z,8.07
2018-04-24T03:30:42.094Z,8.77
2018-04-24T03:33:10.203Z,8.80
2018-04-24T03:35:38.849Z,8.63
2018-04-24T03:38:06.950Z,8.73
2018-04-24T03:40:35.335Z,9.10
2018-04-24T03:43:03.536Z,8.40
2018-04-24T03:45:31.622Z,8.80
2018-04-24T03:47:59.809Z,8.63
2018-04-24T03:50:27.897Z,8.90
2018-04-24T03:52:56.290Z,9.00
2018-04-24T03:55:24.390Z,8.47
2018-04-24T03:57:52.697Z,8.93
2018-04-24T04:00:20.801Z,8.77
2018-04-24T04:02:49.212Z,9.20
2018-04-24T04:05:17.567Z,9.10
2018-04-24T04:07:45.662Z,9.03
2018-04-24T04:10:13.972Z,8.50
2018-04-24T04:12:42.105Z,8.80
2018-04-24T04:15:10.586Z,8.73
2018-04-24T04:17:50.695Z,9.43
2018-04-24T04:20:30.738Z,8.83
2018-04-24T04:23:11.728Z,8.50
2018-04-24T04:25:41.417Z,9.20
2018-04-24T04:28:09.591Z,9.23
2018-04-24T04:30:38.040Z,8.43
2018-04-24T04:33:06.561Z,8.27
2018-04-24T04:35:34.835Z,8.23
2018-04-24T04:38:03.139Z,9.40
2018-04-24T04:40:31.696Z,9.40
2018-04-24T04:43:00.021Z,9.30
2018-04-24T04:45:28.558Z,9.37
2018-04-24T04:47:56.942Z,10.27
2018-04-24T04:50:25.804Z,10.03
2018-04-24T04:52:54.400Z,9.83
2018-04-24T04:55:22.699Z,10.83
2018-04-24T04:57:51.086Z,11.87
2018-04-24T05:00:19.465Z,11.67
2018-04-24T05:02:48.037Z,12.17
2018-04-24T05:05:16.489Z,11.73
2018-04-24T05:07:45.230Z,11.37
2018-04-24T05:10:14.414Z,12.10
2018-04-24T05:12:43.205Z,11.90
2018-04-24T05:15:12.206Z,12.00
2018-04-24T05:17:40.909Z,11.50
2018-04-24T05:20:09.764Z,12.50
2018-04-24T05:22:38.344Z,11.83
2018-04-24T05:25:06.829Z,12.10
2018-04-24T05:27:35.729Z,12.73
2018-04-24T05:30:04.570Z,12.43
2018-04-24T05:32:33.413Z,12.43
2018-04-24T05:35:01.907Z,11.90
2018-04-24T05:37:30.729Z,11.70
2018-04-24T05:39:59.481Z,11.93
2018-04-24T05:42:27.769Z,10.50
2018-04-24T05:44:56.110Z,10.47
2018-04-24T05:47:24.854Z,10.93
2018-04-24T05:49:53.294Z,10.73
2018-04-24T05:52:22.212Z,9.83
2018-04-24T05:54:50.979Z,9.03
2018-04-24T05:57:19.589Z,10.10
2018-04-24T05:59:48.300Z,9.37
2018-04-24T06:02:16.914Z,10.07
2018-04-24T06:04:45.396Z,9.80
2018-04-24T06:07:14.524Z,10.03
2018-04-24T06:09:42.906Z,10.43
2018-04-24T06:12:11.192Z,8.30
2018-04-24T06:14:39.306Z,8.63
2018-04-24T06:17:07.912Z,9.07
2018-04-24T06:19:36.206Z,8.33
2018-04-24T06:22:04.392Z,9.57
2018-04-24T06:24:33.034Z,7.73
2018-04-24T06:27:01.925Z,8.30
2018-04-24T06:29:30.828Z,8.50
2018-04-24T06:31:59.301Z,8.10
2018-04-24T06:34:27.785Z,8.80
2018-04-24T06:36:56.124Z,8.67
2018-04-24T06:39:24.693Z,8.47
2018-04-24T06:41:52.850Z,9.30
2018-04-24T06:44:21.156Z,8.40
2018-04-24T06:46:49.335Z,8.50
2018-04-24T06:49:18.988Z,8.33
2018-04-24T06:51:47.658Z,8.43
2018-04-24T06:54:16.663Z,9.07
2018-04-24T06:56:45.298Z,7.77
2018-04-24T06:59:14.368Z,8.23
2018-04-24T07:01:43.586Z,9.20
2018-04-24T07:04:12.033Z,9.37
2018-04-24T07:06:41.096Z,9.70
2018-04-24T07:09:09.488Z,9.23
2018-04-24T07:11:39.022Z,9.60
2018-04-24T07:14:07.274Z,9.90
2018-04-24T07:16:35.716Z,9.03
2018-04-24T07:19:04.618Z,8.97
2018-04-24T07:21:33.190Z,9.17
2018-04-24T07:24:01.602Z,8.33
2018-04-24T07:26:29.946Z,8.40
2018-04-24T07:28:58.476Z,7.37
2018-04-24T07:31:26.714Z,7.87
2018-04-24T07:33:55.120Z,8.50
2018-04-24T07:36:23.540Z,8.10
2018-04-24T07:38:52.165Z,7.00
2018-04-24T07:41:20.446Z,8.10
2018-04-24T07:43:48.773Z,9.07
2018-04-24T07:46:17.007Z,8.53
2018-04-24T07:48:45.550Z,8.73
2018-04-24T07:51:13.891Z,8.13
2018-04-24T07:53:42.052Z,8.77
2018-04-24T07:56:10.421Z,8.03
2018-04-24T07:58:38.687Z,8.07
2018-04-24T08:01:07.162Z,8.57
2018-04-24T08:03:35.389Z,8.20
2018-04-24T08:06:05.992Z,9.23
2018-04-24T08:08:35.529Z,8.17
2018-04-24T08:11:03.899Z,7.87
2018-04-24T08:13:32.106Z,8.00
2018-04-24T08:16:00.591Z,8.60
2018-04-24T08:18:28.957Z,8.13
2018-04-24T08:20:57.235Z,7.67
2018-04-24T08:23:25.697Z,7.40
2018-04-24T08:25:54.108Z,8.27
2018-04-24T08:28:22.430Z,8.27
2018-04-24T08:30:51.078Z,7.70
2018-04-24T08:33:19.447Z,7.67
2018-04-24T08:35:47.779Z,7.83
2018-04-24T08:38:16.005Z,8.53
2018-04-24T08:40:44.720Z,7.60
2018-04-24T08:43:12.948Z,8.30
2018-04-24T08:45:41.253Z,7.90
2018-04-24T08:48:09.446Z,7.20
2018-04-24T08:50:37.663Z,8.03
2018-04-24T08:53:06.079Z,8.03
2018-04-24T08:55:34.676Z,7.97
2018-04-24T08:58:02.955Z,8.27
2018-04-24T09:00:31.299Z,7.67
2018-04-24T09:02:59.452Z,9.50
2018-04-24T09:05:27.654Z,8.47
2018-04-24T09:07:56.053Z,9.00
2018-04-24T09:10:24.368Z,8.33
2018-04-24T09:12:52.603Z,8.33
2018-04-24T09:15:20.911Z,8.47
2018-04-24T09:17:49.971Z,8.47
2018-04-24T09:20:18.284Z,8.97
2018-04-24T09:22:46.796Z,9.93
2018-04-24T09:25:15.048Z,9.97
2018-04-24T09:27:43.570Z,10.07
2018-04-24T09:30:11.925Z,10.20
2018-04-24T09:32:40.090Z,10.47
2018-04-24T09:35:08.433Z,10.87
2018-04-24T09:37:36.817Z,11.87
2018-04-24T09:40:05.442Z,11.00
2018-04-24T09:42:33.679Z,11.30
2018-04-24T09:45:01.893Z,11.83
2018-04-24T09:47:30.031Z,11.30
2018-04-24T09:49:58.393Z,11.77
2018-04-24T09:52:26.712Z,11.63
2018-04-24T09:54:54.905Z,11.13
2018-04-24T09:57:23.088Z,11.90
2018-04-24T09:59:51.487Z,11.67
2018-04-24T10:02:19.815Z,11.10
2018-04-24T10:04:48.237Z,10.83
2018-04-24T10:07:16.628Z,10.60
2018-04-24T10:09:44.826Z,11.57
2018-04-24T10:12:13.069Z,11.00
2018-04-24T10:14:41.379Z,11.73
2018-04-24T10:17:09.563Z,12.33
2018-04-24T10:19:37.909Z,10.57
2018-04-24T10:22:06.256Z,11.67
2018-04-24T10:24:34.489Z,10.33
2018-04-24T10:27:02.691Z,10.97
2018-04-24T10:29:30.971Z,10.57
2018-04-24T10:31:59.164Z,10.77
2018-04-24T10:34:27.324Z,9.77
2018-04-24T10:36:55.620Z,9.60
2018-04-24T10:39:23.963Z,9.63
2018-04-24T10:41:52.252Z,10.37
2018-04-24T10:44:20.456Z,10.73
2018-04-24T10:46:48.821Z,10.77
2018-04-24T10:49:17.182Z,10.23
2018-04-24T10:51:45.306Z,9.23
2018-04-24T10:54:14.174Z,9.10
2018-04-24T10:56:42.750Z,9.47
2018-04-24T10:59:11.080Z,9.70
2018-04-24T11:01:39.435Z,9.60
2018-04-24T11:04:07.630Z,10.27
2018-04-24T11:06:35.918Z,11.07
2018-04-24T11:09:04.263Z,10.27
2018-04-24T11:11:32.570Z,9.73
2018-04-24T11:14:00.997Z,11.47
2018-04-24T11:16:29.379Z,10.90
2018-04-24T11:18:57.521Z,11.57
2018-04-24T11:21:25.992Z,11.40
2018-04-24T11:23:54.339Z,10.97
2018-04-24T11:26:22.565Z,11.60
2018-04-24T11:28:50.989Z,12.07
2018-04-24T11:31:19.422Z,12.07
2018-04-24T11:33:47.942Z,11.13
2018-04-24T11:36:16.184Z,12.23
2018-04-24T11:38:44.597Z,11.53
2018-04-24T11:41:12.869Z,11.47
2018-04-24T11:43:41.147Z,12.33
2018-04-24T11:46:09.446Z,12.20
2018-04-24T11:48:37.820Z,12.37
2018-04-24T11:51:06.333Z,12.00
2018-04-24T11:53:34.573Z,12.03
2018-04-24T11:56:02.711Z,11.83
2018-04-24T11:58:30.971Z,12.50
2018-04-24T12:00:59.402Z,11.50
2018-04-24T12:03:28.152Z,12.47
2018-04-24T12:05:56.560Z,10.73
2018-04-24T12:08:24.881Z,11.53
2018-04-24T12:10:53.102Z,12.13
2018-04-24T12:13:21.614Z,11.40
2018-04-24T12:15:50.031Z,11.13
2018-04-24T12:18:18.654Z,11.03
2018-04-24T12:20:46.874Z,11.03
2018-04-24T12:23:15.118Z,11.17
2018-04-24T12:25:43.495Z,11.13
2018-04-24T12:28:11.858Z,10.93
2018-04-24T12:30:40.163Z,11.20
2018-04-24T12:33:08.520Z,11.10
2018-04-24T12:35:37.011Z,11.87
2018-04-24T12:38:05.274Z,11.07
2018-04-24T12:40:33.552Z,12.17
2018-04-24T12:43:02.310Z,14.57
2018-04-24T12:45:30.642Z,13.17
2018-04-24T12:47:58.972Z,14.23
2018-04-24T12:50:27.171Z,15.20
2018-04-24T12:52:55.429Z,14.63
2018-04-24T12:55:23.701Z,15.63
2018-04-24T12:57:52.126Z,17.70
2018-04-24T13:00:20.696Z,18.17
2018-04-24T13:02:49.102Z,18.20
2018-04-24T13:05:17.316Z,18.70
2018-04-24T13:07:45.524Z,17.90
2018-04-24T13:10:14.130Z,17.30
2018-04-24T13:12:42.339Z,14.87
2018-04-24T13:15:10.529Z,14.20
2018-04-24T13:17:38.903Z,12.87
2018-04-24T13:20:07.359Z,14.27
2018-04-24T13:22:35.544Z,11.90
2018-04-24T13:25:03.826Z,12.13
2018-04-24T13:27:32.122Z,12.47
2018-04-24T13:30:01.019Z,12.20
2018-04-24T13:32:30.055Z,12.77
2018-04-24T13:34:58.674Z,11.00
2018-04-24T13:37:27.307Z,11.17
2018-04-24T13:39:55.679Z,12.27
2018-04-24T13:42:25.401Z,12.57
2018-04-24T13:44:53.495Z,10.87
2018-04-24T13:47:21.865Z,11.73
2018-04-24T13:49:50.087Z,11.17
2018-04-24T13:52:18.724Z,11.03
2018-04-24T13:54:47.018Z,11.97
2018-04-24T13:57:15.272Z,10.80
2018-04-24T13:59:43.655Z,10.63
2018-04-24T14:02:11.983Z,10.67
2018-04-24T14:04:40.346Z,12.30
2018-04-24T14:07:08.737Z,11.90
2018-04-24T14:09:36.991Z,12.63
2018-04-24T14:12:05.449Z,13.30
2018-04-24T14:14:33.727Z,13.50
2018-04-24T14:17:02.022Z,14.13
2018-04-24T14:19:30.284Z,14.10
2018-04-24T14:21:58.606Z,14.10
2018-04-24T14:24:27.037Z,13.70
2018-04-24T14:26:56.127Z,13.73
2018-04-24T14:29:24.643Z,14.20
2018-04-24T14:31:52.998Z,12.80
2018-04-24T14:34:21.297Z,14.53
2018-04-24T14:36:49.625Z,14.10
2018-04-24T14:39:17.875Z,15.03
2018-04-24T14:41:46.289Z,13.63
2018-04-24T14:44:14.865Z,14.90
2018-04-24T14:46:43.826Z,15.03
2018-04-24T14:49:12.624Z,17.83
2018-04-24T14:51:41.222Z,17.03
2018-04-24T14:54:09.708Z,18.57
2018-04-24T14:56:38.230Z,17.87
2018-04-24T14:59:07.054Z,17.63
2018-04-24T15:01:35.795Z,17.27
2018-04-24T15:04:04.254Z,17.00
2018-04-24T15:06:42.182Z,17.27
2018-04-24T15:09:10.513Z,16.87
2018-04-24T15:11:38.779Z,27.60
2018-04-24T15:14:07.031Z,30.40
2018-04-24T15:16:35.343Z,29.50
2018-04-24T15:19:03.950Z,30.53
2018-04-24T15:21:32.349Z,32.27
2018-04-24T15:24:00.877Z,33.17
2018-04-24T15:26:29.409Z,30.70
2018-04-24T15:28:58.537Z,30.53
2018-04-24T15:31:27.441Z,30.90
2018-04-24T15:33:56.781Z,29.40
2018-04-24T15:36:25.312Z,26.97
2018-04-24T15:38:54.566Z,28.03
2018-04-24T15:41:23.619Z,29.77
2018-04-24T15:43:52.840Z,28.67
2018-04-24T15:46:21.200Z,26.93
2018-04-24T15:48:49.739Z,25.03
2018-04-24T15:51:18.567Z,25.47
2018-04-24T15:53:46.937Z,23.77
2018-04-24T15:56:15.186Z,25.77
2018-04-24T15:58:44.023Z,24.03
2018-04-24T16:01:12.258Z,24.03
2018-04-24T16:03:41.052Z,24.93
2018-04-24T16:06:09.755Z,27.60
2018-04-24T16:08:38.353Z,27.77
2018-04-24T16:11:06.925Z,27.47
2018-04-24T16:13:35.347Z,28.27
2018-04-24T16:16:03.802Z,23.40
2018-04-24T16:18:32.049Z,25.53
2018-04-24T16:21:00.496Z,24.17
2018-04-24T16:23:28.969Z,24.23
2018-04-24T16:25:57.335Z,24.47
2018-04-24T16:28:27.230Z,24.80
2018-04-24T16:30:56.146Z,25.17
2018-04-24T16:33:24.934Z,24.47
2018-04-24T16:35:54.675Z,23.47
2018-04-24T16:38:23.628Z,24.03
2018-04-24T16:40:52.221Z,25.83
2018-04-24T16:43:20.932Z,24.37
2018-04-24T16:45:49.440Z,21.20
2018-04-24T16:48:17.811Z,20.23
2018-04-24T16:50:47.056Z,19.87
2018-04-24T16:53:15.738Z,20.23
2018-04-24T16:55:44.298Z,19.47
2018-04-24T16:58:12.809Z,20.10
2018-04-24T17:00:42.077Z,21.10
2018-04-24T17:03:10.533Z,21.93
2018-04-24T17:05:40.114Z,22.20
2018-04-24T17:08:08.769Z,22.93
2018-04-24T17:10:37.338Z,24.60
2018-04-24T17:13:06.308Z,22.93
2018-04-24T17:15:34.979Z,21.57
2018-04-24T17:18:04.454Z,22.63
2018-04-24T17:20:33.526Z,21.77
2018-04-24T17:23:02.398Z,21.87
2018-04-24T17:25:32.448Z,23.83
2018-04-24T17:28:01.556Z,21.13
2018-04-24T17:30:30.377Z,22.17
2018-04-24T17:32:58.861Z,22.00
2018-04-24T17:35:27.729Z,20.53
2018-04-24T17:37:56.306Z,20.60
2018-04-24T17:40:25.239Z,21.90
2018-04-24T17:42:53.777Z,23.27
2018-04-24T17:45:22.746Z,22.50
2018-04-24T17:47:52.217Z,23.27
2018-04-24T17:50:21.016Z,23.37
2018-04-24T17:52:49.509Z,22.27
2018-04-24T17:55:17.979Z,23.27
2018-04-24T17:57:46.816Z,23.53
2018-04-24T18:00:15.197Z,21.77
2018-04-24T18:02:43.784Z,22.37
2018-04-24T18:05:12.253Z,22.37
2018-04-24T18:07:40.592Z,22.23
2018-04-24T18:10:08.896Z,22.17
2018-04-24T18:12:37.292Z,21.43
2018-04-24T18:15:06.052Z,20.77
2018-04-24T18:17:34.485Z,22.40
2018-04-24T18:20:02.945Z,22.43
2018-04-24T18:22:31.819Z,21.90
2018-04-24T18:25:00.406Z,21.37
2018-04-24T18:27:28.783Z,21.07
2018-04-24T18:29:57.357Z,21.87
2018-04-24T18:32:25.876Z,22.17
2018-04-24T18:34:54.269Z,21.97
2018-04-24T18:37:22.473Z,21.80
2018-04-24T18:39:50.645Z,21.10
2018-04-24T18:42:18.873Z,20.63
2018-04-24T18:44:46.990Z,20.00
2018-04-24T18:47:15.383Z,21.63
2018-04-24T18:49:43.679Z,20.10
2018-04-24T18:52:12.136Z,19.63
2018-04-24T18:54:40.249Z,20.30
2018-04-24T18:57:08.420Z,19.30
2018-04-24T18:59:36.742Z,20.53
2018-04-24T19:02:04.818Z,26.93
2018-04-24T19:04:32.981Z,22.93
2018-04-24T19:07:01.064Z,22.17
2018-04-24T19:09:29.202Z,20.57
2018-04-24T19:11:57.656Z,20.77
2018-04-24T19:14:25.783Z,18.37
2018-04-24T19:16:53.983Z,18.97
2018-04-24T19:19:25.903Z,19.30
2018-04-24T19:21:54.027Z,20.77
2018-04-24T19:24:27.747Z,19.20
2018-04-24T19:26:57.251Z,19.53
2018-04-24T19:29:25.883Z,19.13
2018-04-24T19:31:59.712Z,20.13
2018-04-24T19:34:28.370Z,18.30
2018-04-24T19:36:56.819Z,18.53
2018-04-24T19:39:30.949Z,19.30
2018-04-24T19:41:59.427Z,19.40
2018-04-24T19:44:27.599Z,20.90
2018-04-24T19:46:56.151Z,21.50
2018-04-24T19:49:30.075Z,22.90
2018-04-24T19:51:58.733Z,24.90
2018-04-24T19:54:26.901Z,27.17
2018-04-24T19:56:55.231Z,25.80
2018-04-24T19:59:23.524Z,26.47
2018-04-24T20:01:51.724Z,26.00
2018-04-24T20:04:19.897Z,28.53
2018-04-24T20:06:48.082Z,27.47
2018-04-24T20:09:16.266Z,29.07
2018-04-24T20:11:44.404Z,29.97
2018-04-24T20:14:12.891Z,29.60
2018-04-24T20:16:41.122Z,28.33
2018-04-24T20:19:09.311Z,29.47
2018-04-24T20:21:37.475Z,28.80
2018-04-24T20:24:05.612Z,29.23
2018-04-24T20:26:33.929Z,28.17
2018-04-24T20:29:02.066Z,28.30
2018-04-24T20:31:30.453Z,28.67
2018-04-24T20:33:58.714Z,29.77
2018-04-24T20:36:26.978Z,28.57
2018-04-24T20:38:55.140Z,30.03
2018-04-24T20:41:23.593Z,27.63
2018-04-24T20:43:51.942Z,28.77
2018-04-24T20:46:20.036Z,29.13
2018-04-24T20:48:48.970Z,29.50
2018-04-24T20:51:17.349Z,31.23
2018-04-24T20:53:45.508Z,31.70
2018-04-24T20:56:13.634Z,30.07
2018-04-24T20:58:41.763Z,30.37
2018-04-24T21:01:10.235Z,29.90
2018-04-24T21:03:38.634Z,31.97
2018-04-24T21:06:06.789Z,30.93
2018-04-24T21:08:34.924Z,31.77
2018-04-24T21:11:03.092Z,31.77
2018-04-24T21:13:31.238Z,30.57
2018-04-24T21:15:59.374Z,30.83
2018-04-24T21:18:27.489Z,30.33
2018-04-24T21:20:55.773Z,32.27
2018-04-24T21:23:24.080Z,31.57
2018-04-24T21:25:52.208Z,31.57
2018-04-24T21:28:20.327Z,31.40
2018-04-24T21:30:48.626Z,31.97
2018-04-24T21:33:16.731Z,32.53
2018-04-24T21:35:44.829Z,30.97
2018-04-24T21:38:13.098Z,33.67
2018-04-24T21:40:41.242Z,34.13
2018-04-24T21:43:09.336Z,32.87
2018-04-24T21:45:37.622Z,33.70
2018-04-24T21:48:06.683Z,33.40
2018-04-24T21:50:35.054Z,32.33
2018-04-24T21:53:03.245Z,34.50
2018-04-24T21:55:31.358Z,33.07
2018-04-24T21:57:59.621Z,33.43
2018-04-24T22:00:27.899Z,34.77
2018-04-24T22:02:56.603Z,33.50
2018-04-24T22:05:24.933Z,33.13
2018-04-24T22:07:53.328Z,33.40
2018-04-24T22:10:21.571Z,31.90
2018-04-24T22:12:49.834Z,33.50
2018-04-24T22:15:18.174Z,35.73
2018-04-24T22:17:46.295Z,35.87
2018-04-24T22:20:14.423Z,33.40
2018-04-24T22:22:42.723Z,36.87
2018-04-24T22:25:10.856Z,35.13
2018-04-24T22:27:39.161Z,37.13
2018-04-24T22:30:07.329Z,36.53
2018-04-24T22:32:35.546Z,36.47
2018-04-24T22:35:04.006Z,37.60
2018-04-24T22:37:32.355Z,36.23
2018-04-24T22:40:00.675Z,41.50
2018-04-24T22:42:28.820Z,37.87
2018-04-24T22:44:57.157Z,37.63
2018-04-24T22:47:25.505Z,38.43
2018-04-24T22:49:53.913Z,38.63
2018-04-24T22:52:22.181Z,38.30
2018-04-24T22:54:50.369Z,39.57
2018-04-24T22:57:18.809Z,38.30
2018-04-24T22:59:46.897Z,38.37
2018-04-24T23:02:15.300Z,39.33
2018-04-24T23:04:43.588Z,41.07
2018-04-24T23:07:12.007Z,39.07
2018-04-24T23:09:40.125Z,38.50
2018-04-24T23:12:20.423Z,39.00
2018-04-24T23:15:00.462Z,37.77
2018-04-24T23:17:40.437Z,34.53
2018-04-24T23:20:16.465Z,37.00
2018-04-24T23:22:44.635Z,36.20
2018-04-24T23:25:13.055Z,34.90
2018-04-24T23:27:41.181Z,34.67
2018-04-24T23:30:09.549Z,36.73
2018-04-24T23:32:37.926Z,35.97
2018-04-24T23:35:06.315Z,35.10
2018-04-24T23:37:34.552Z,33.47
2018-04-24T23:40:02.644Z,35.43
2018-04-24T23:42:30.815Z,34.23
2018-04-24T23:44:59.204Z,33.40
2018-04-24T23:47:27.503Z,33.80
2018-04-24T23:49:55.917Z,34.43
2018-04-24T23:52:24.048Z,33.73
2018-04-24T23:54:52.153Z,34.27
2018-04-24T23:57:20.413Z,36.67
2018-04-24T23:59:48.849Z,34.37
